createdAt,value
2018-06-29T00:00:34.279Z,70.40
2018-06-29T00:03:10.311Z,70.30
2018-06-29T00:05:47.837Z,70.30
2018-06-29T00:08:25.132Z,70.10
2018-06-29T00:11:01.800Z,69.90
2018-06-29T00:13:38.475Z,70.50
2018-06-29T00:16:14.844Z,70.50
2018-06-29T00:18:51.545Z,71.30
2018-06-29T00:21:29.702Z,71.30
2018-06-29T00:24:07.591Z,71.50
2018-06-29T00:26:44.295Z,72.00
2018-06-29T00:29:20.697Z,72.20
2018-06-29T00:31:58.726Z,72.80
2018-06-29T00:34:35.535Z,73.50
2018-06-29T00:37:12.789Z,74.20
2018-06-29T00:39:48.845Z,74.10
2018-06-29T00:42:26.824Z,73.90
2018-06-29T00:45:04.787Z,73.90
2018-06-29T00:47:40.702Z,74.50
2018-06-29T00:50:16.976Z,74.20
2018-06-29T00:52:53.922Z,75.00
2018-06-29T00:55:31.174Z,74.70
2018-06-29T00:58:07.361Z,75.00
2018-06-29T01:00:44.652Z,75.10
2018-06-29T01:03:23.163Z,75.60
2018-06-29T01:05:59.813Z,75.60
2018-06-29T01:08:37.159Z,75.70
2018-06-29T01:11:14.579Z,76.90
2018-06-29T01:13:51.783Z,77.10
2018-06-29T01:16:28.550Z,75.80
2018-06-29T01:19:05.054Z,76.80
2018-06-29T01:21:40.870Z,76.20
2018-06-29T01:24:17.473Z,76.10
2018-06-29T01:26:55.728Z,76.20
2018-06-29T01:29:31.908Z,76.30
2018-06-29T01:32:08.410Z,76.40
2018-06-29T01:34:45.519Z,76.90
2018-06-29T01:37:22.947Z,76.60
2018-06-29T01:40:00.795Z,75.80
2018-06-29T01:42:38.840Z,75.80
2018-06-29T01:45:15.188Z,76.20
2018-06-29T01:47:51.490Z,75.70
2018-06-29T01:50:27.353Z,75.50
2018-06-29T01:53:03.841Z,75.20
2018-06-29T01:55:41.233Z,75.20
2018-06-29T01:58:18.769Z,75.10
2018-06-29T02:00:55.739Z,75.00
2018-06-29T02:03:33.542Z,74.70
2018-06-29T02:06:11.359Z,74.70
2018-06-29T02:08:48.204Z,74.80
2018-06-29T02:11:24.809Z,74.60
2018-06-29T02:14:02.287Z,75.80
2018-06-29T02:16:41.873Z,76.10
2018-06-29T02:19:18.427Z,76.60
2018-06-29T02:21:56.187Z,77.00
2018-06-29T02:24:32.774Z,76.50
2018-06-29T02:27:09.493Z,77.00
2018-06-29T02:29:46.426Z,77.20
2018-06-29T02:32:24.892Z,77.30
2018-06-29T02:35:02.015Z,76.90
2018-06-29T02:37:38.454Z,77.30
2018-06-29T02:40:15.730Z,77.10
2018-06-29T02:42:52.554Z,77.20
2018-06-29T02:45:28.905Z,77.00
2018-06-29T02:48:04.934Z,76.70
2018-06-29T02:50:42.357Z,76.70
2018-06-29T02:53:17.897Z,76.60
2018-06-29T02:55:54.489Z,76.50
2018-06-29T02:58:31.815Z,76.00
2018-06-29T03:01:09.070Z,76.80
2018-06-29T03:03:45.485Z,77.10
2018-06-29T03:06:23.217Z,77.20
2018-06-29T03:09:00.046Z,77.50
2018-06-29T03:11:38.172Z,77.70
2018-06-29T03:14:15.614Z,77.50
2018-06-29T03:16:52.235Z,78.60
2018-06-29T03:19:29.528Z,78.30
2018-06-29T03:22:06.204Z,78.30
2018-06-29T03:24:42.026Z,78.30
2018-06-29T03:27:19.954Z,78.50
2018-06-29T03:29:56.690Z,78.80
2018-06-29T03:32:32.852Z,79.10
2018-06-29T03:35:09.595Z,79.20
2018-06-29T03:37:47.056Z,79.30
2018-06-29T03:40:23.358Z,79.30
2018-06-29T03:42:59.561Z,80.00
2018-06-29T03:45:36.156Z,79.80
2018-06-29T03:48:13.655Z,79.80
2018-06-29T03:50:49.646Z,79.70
2018-06-29T03:53:27.459Z,79.60
2018-06-29T03:56:06.382Z,79.80
2018-06-29T03:58:43.565Z,80.00
2018-06-29T04:01:20.298Z,79.90
2018-06-29T04:03:58.062Z,80.20
2018-06-29T04:06:34.253Z,79.40
2018-06-29T04:09:12.423Z,78.60
2018-06-29T04:11:49.997Z,78.60
2018-06-29T04:14:25.529Z,78.60
2018-06-29T04:17:02.007Z,78.50
2018-06-29T04:19:43.555Z,78.40
2018-06-29T04:22:20.778Z,77.70
2018-06-29T04:25:01.752Z,77.80
2018-06-29T04:27:39.413Z,77.60
2018-06-29T04:30:17.738Z,77.90
2018-06-29T04:32:53.996Z,77.30
2018-06-29T04:35:31.256Z,77.10
2018-06-29T04:38:08.526Z,77.60
2018-06-29T04:40:44.887Z,76.90
2018-06-29T04:43:22.507Z,75.60
2018-06-29T04:45:59.827Z,75.40
2018-06-29T04:48:36.876Z,75.10
2018-06-29T04:51:13.357Z,75.10
2018-06-29T04:53:49.943Z,75.00
2018-06-29T04:56:27.445Z,74.00
2018-06-29T04:59:03.989Z,74.10
2018-06-29T05:01:42.129Z,74.30
2018-06-29T05:04:19.907Z,73.00
2018-06-29T05:06:55.946Z,72.80
2018-06-29T05:09:33.479Z,74.10
2018-06-29T05:12:11.058Z,72.40
2018-06-29T05:14:48.900Z,71.90
2018-06-29T05:20:03.100Z,70.70
2018-06-29T05:22:40.034Z,68.50
2018-06-29T05:25:17.848Z,66.20
2018-06-29T05:27:55.785Z,65.70
2018-06-29T05:30:33.300Z,64.70
2018-06-29T05:33:10.669Z,65.30
2018-06-29T05:35:48.944Z,65.60
2018-06-29T05:38:25.718Z,65.30
2018-06-29T05:41:02.184Z,66.20
2018-06-29T05:43:39.990Z,66.40
2018-06-29T05:46:18.051Z,67.30
2018-06-29T05:48:55.170Z,68.00
2018-06-29T05:51:33.118Z,69.40
2018-06-29T05:54:11.459Z,69.50
2018-06-29T05:56:49.573Z,69.70
2018-06-29T05:59:25.877Z,69.30
2018-06-29T06:04:41.797Z,68.50
2018-06-29T06:07:19.433Z,68.60
2018-06-29T06:09:56.868Z,68.40
2018-06-29T06:12:34.405Z,68.50
2018-06-29T06:15:12.369Z,67.90
2018-06-29T06:17:48.767Z,68.50
2018-06-29T06:20:28.687Z,67.40
2018-06-29T06:23:20.033Z,68.10
2018-06-29T06:25:58.097Z,68.30
2018-06-29T06:28:34.803Z,67.70
2018-06-29T06:31:11.145Z,68.10
2018-06-29T06:33:51.246Z,68.50
2018-06-29T06:36:29.857Z,68.40
2018-06-29T06:39:11.744Z,67.70
2018-06-29T06:41:47.843Z,67.60
2018-06-29T06:44:24.403Z,67.30
2018-06-29T06:47:01.122Z,67.70
2018-06-29T06:49:37.266Z,67.50
2018-06-29T06:52:14.788Z,67.30
2018-06-29T06:54:52.277Z,67.00
2018-06-29T06:57:28.349Z,66.60
2018-06-29T07:00:06.245Z,65.70
2018-06-29T07:02:43.291Z,66.20
2018-06-29T07:05:21.037Z,67.20
2018-06-29T07:07:58.028Z,66.30
2018-06-29T07:10:34.410Z,66.20
2018-06-29T07:13:11.712Z,65.20
2018-06-29T07:15:47.761Z,65.80
2018-06-29T07:18:23.964Z,64.80
2018-06-29T07:21:02.558Z,63.40
2018-06-29T07:23:39.425Z,63.40
2018-06-29T07:28:53.272Z,61.40
2018-06-29T07:31:30.364Z,61.80
2018-06-29T07:34:06.673Z,62.40
2018-06-29T07:36:43.951Z,61.00
2018-06-29T07:39:22.134Z,60.80
2018-06-29T07:41:59.393Z,59.20
2018-06-29T07:44:36.444Z,58.80
2018-06-29T07:47:14.632Z,58.40
2018-06-29T07:49:51.588Z,59.20
2018-06-29T07:52:28.885Z,58.20
2018-06-29T07:55:05.286Z,58.80
2018-06-29T07:57:41.643Z,58.10
2018-06-29T08:00:18.756Z,59.00
2018-06-29T08:02:56.307Z,56.90
2018-06-29T08:05:33.246Z,53.50
2018-06-29T08:08:10.854Z,50.80
2018-06-29T08:10:49.853Z,47.50
2018-06-29T08:13:27.554Z,43.40
2018-06-29T08:16:05.237Z,40.00
2018-06-29T08:18:42.758Z,39.40
2018-06-29T08:21:20.030Z,39.30
2018-06-29T08:23:57.784Z,38.90
2018-06-29T08:26:35.426Z,38.60
2018-06-29T08:29:12.491Z,39.50
2018-06-29T08:31:50.433Z,41.00
2018-06-29T08:34:27.614Z,39.00
2018-06-29T08:37:04.316Z,37.70
2018-06-29T08:39:41.417Z,36.00
2018-06-29T08:42:19.526Z,35.90
2018-06-29T08:44:57.197Z,35.00
2018-06-29T08:47:32.969Z,34.90
2018-06-29T08:50:10.582Z,32.80
2018-06-29T08:52:48.674Z,33.00
2018-06-29T08:55:27.129Z,33.40
2018-06-29T08:58:06.237Z,34.20
2018-06-29T09:00:44.629Z,31.80
2018-06-29T09:03:22.343Z,32.90
2018-06-29T09:05:59.410Z,30.40
2018-06-29T09:08:35.845Z,30.10
2018-06-29T09:11:13.434Z,30.60
2018-06-29T09:13:50.514Z,30.60
2018-06-29T09:16:26.471Z,32.30
2018-06-29T09:19:04.071Z,32.40
2018-06-29T09:21:41.354Z,31.00
2018-06-29T09:26:55.236Z,30.70
2018-06-29T09:29:32.791Z,30.20
2018-06-29T09:32:10.050Z,30.80
2018-06-29T09:34:47.706Z,31.00
2018-06-29T09:37:25.925Z,31.80
2018-06-29T09:40:03.875Z,30.90
2018-06-29T09:42:42.432Z,31.00
2018-06-29T09:45:20.043Z,30.50
2018-06-29T09:47:56.318Z,30.50
2018-06-29T09:50:33.205Z,30.30
2018-06-29T09:53:10.285Z,29.20
2018-06-29T09:55:48.816Z,30.20
2018-06-29T09:58:26.011Z,29.40
2018-06-29T10:01:04.239Z,29.20
2018-06-29T10:03:40.975Z,28.80
2018-06-29T10:06:17.709Z,28.30
2018-06-29T10:08:56.069Z,29.00
2018-06-29T10:11:34.293Z,29.60
2018-06-29T10:14:13.338Z,28.90
2018-06-29T10:16:51.341Z,29.60
2018-06-29T10:19:28.502Z,29.90
2018-06-29T10:22:06.485Z,28.90
2018-06-29T10:24:42.986Z,29.10
2018-06-29T10:27:20.481Z,28.00
2018-06-29T10:29:57.378Z,26.90
2018-06-29T10:32:33.965Z,26.30
2018-06-29T10:35:11.557Z,26.20
2018-06-29T10:37:49.018Z,27.00
2018-06-29T10:40:25.289Z,27.00
2018-06-29T10:43:01.101Z,26.80
2018-06-29T10:45:38.469Z,26.00
2018-06-29T10:48:14.216Z,26.50
2018-06-29T10:50:51.546Z,25.60
2018-06-29T10:53:28.949Z,25.90
2018-06-29T10:56:06.710Z,25.10
2018-06-29T10:58:44.349Z,25.10
2018-06-29T11:01:20.955Z,25.70
2018-06-29T11:03:58.209Z,26.40
2018-06-29T11:06:36.430Z,26.10
2018-06-29T11:09:13.861Z,25.80
2018-06-29T11:11:51.380Z,24.20
2018-06-29T11:14:27.964Z,25.00
2018-06-29T11:17:05.129Z,26.40
2018-06-29T11:19:43.880Z,25.00
2018-06-29T11:22:21.168Z,25.40
2018-06-29T11:24:57.859Z,25.40
2018-06-29T11:27:36.101Z,24.70
2018-06-29T11:30:12.880Z,24.30
2018-06-29T11:32:50.482Z,24.00
2018-06-29T11:35:33.722Z,23.80
2018-06-29T11:38:12.573Z,23.70
2018-06-29T11:40:49.930Z,24.20
2018-06-29T11:43:27.337Z,23.60
2018-06-29T11:46:04.935Z,23.90
2018-06-29T11:48:42.765Z,23.10
2018-06-29T11:51:20.119Z,24.60
2018-06-29T11:53:58.061Z,24.10
2018-06-29T11:56:34.678Z,22.70
2018-06-29T11:59:11.108Z,22.60
2018-06-29T12:01:47.544Z,22.80
2018-06-29T12:04:23.866Z,22.60
2018-06-29T12:07:00.438Z,22.20
2018-06-29T12:09:37.097Z,22.60
2018-06-29T12:12:14.936Z,22.70
2018-06-29T12:14:53.120Z,22.70
2018-06-29T12:17:30.253Z,23.40
2018-06-29T12:20:06.591Z,22.70
2018-06-29T12:22:44.590Z,23.70
2018-06-29T12:25:22.111Z,24.30
2018-06-29T12:27:59.928Z,23.10
2018-06-29T12:30:37.068Z,23.20
2018-06-29T12:33:13.369Z,22.70
2018-06-29T12:35:50.740Z,23.20
2018-06-29T12:38:28.273Z,23.10
2018-06-29T12:41:05.917Z,23.40
2018-06-29T12:43:42.477Z,23.90
2018-06-29T12:46:20.934Z,24.00
2018-06-29T12:48:57.652Z,23.80
2018-06-29T12:51:35.624Z,23.70
2018-06-29T12:54:13.531Z,24.20
2018-06-29T12:56:51.745Z,24.30
2018-06-29T12:59:29.505Z,23.80
2018-06-29T13:02:06.024Z,22.50
2018-06-29T13:04:44.079Z,22.70
2018-06-29T13:07:22.033Z,23.50
2018-06-29T13:09:58.400Z,22.90
2018-06-29T13:12:35.486Z,23.10
2018-06-29T13:15:14.080Z,22.90
2018-06-29T13:17:52.347Z,23.10
2018-06-29T13:20:29.430Z,23.50
2018-06-29T13:23:07.279Z,23.70
2018-06-29T13:25:45.530Z,24.20
2018-06-29T13:28:24.095Z,24.00
2018-06-29T13:31:02.129Z,23.60
2018-06-29T13:33:38.615Z,23.80
2018-06-29T13:36:16.581Z,23.30
2018-06-29T13:38:53.403Z,23.00
2018-06-29T13:41:31.056Z,23.50
2018-06-29T13:44:08.539Z,23.20
2018-06-29T13:46:45.035Z,23.50
2018-06-29T13:49:22.758Z,23.60
2018-06-29T13:52:00.032Z,23.80
2018-06-29T13:54:37.773Z,23.70
2018-06-29T13:57:15.694Z,23.70
2018-06-29T13:59:52.266Z,24.10
2018-06-29T14:02:29.612Z,24.00
2018-06-29T14:05:08.069Z,23.80
2018-06-29T14:07:46.498Z,25.00
2018-06-29T14:10:24.737Z,24.30
2018-06-29T14:13:02.464Z,24.30
2018-06-29T14:15:39.625Z,24.30
2018-06-29T14:18:15.569Z,24.90
2018-06-29T14:20:53.233Z,24.50
2018-06-29T14:23:31.475Z,24.90
2018-06-29T14:26:09.278Z,25.60
2018-06-29T14:28:45.985Z,25.90
2018-06-29T14:31:26.858Z,26.30
2018-06-29T14:34:08.069Z,26.70
2018-06-29T14:36:46.410Z,25.80
2018-06-29T14:39:25.004Z,26.10
2018-06-29T14:42:02.804Z,27.40
2018-06-29T14:44:40.467Z,27.00
2018-06-29T14:47:18.237Z,27.90
2018-06-29T14:52:31.676Z,28.50
2018-06-29T14:55:09.127Z,28.60
2018-06-29T14:57:45.597Z,28.20
2018-06-29T15:00:22.529Z,29.00
2018-06-29T15:02:59.685Z,28.10
2018-06-29T15:05:38.109Z,26.90
2018-06-29T15:08:15.209Z,28.10
2018-06-29T15:10:52.667Z,28.70
2018-06-29T15:13:30.308Z,29.20
2018-06-29T15:16:08.694Z,28.80
2018-06-29T15:18:45.537Z,28.70
2018-06-29T15:21:22.978Z,29.00
2018-06-29T15:24:02.078Z,28.20
2018-06-29T15:26:38.709Z,27.40
2018-06-29T15:29:15.115Z,27.50
2018-06-29T15:31:51.829Z,27.80
2018-06-29T15:34:28.577Z,28.20
2018-06-29T15:37:05.886Z,27.70
2018-06-29T15:39:44.383Z,27.80
2018-06-29T15:42:22.695Z,27.20
2018-06-29T15:45:00.544Z,28.10
2018-06-29T15:47:38.055Z,27.00
2018-06-29T15:50:15.489Z,27.10
2018-06-29T15:52:54.434Z,27.20
2018-06-29T15:55:32.389Z,27.20
2018-06-29T15:58:09.717Z,27.90
2018-06-29T16:00:46.494Z,27.60
2018-06-29T16:03:24.658Z,28.00
2018-06-29T16:06:01.945Z,27.90
2018-06-29T16:08:38.914Z,27.70
2018-06-29T16:11:15.610Z,27.00
2018-06-29T16:13:52.043Z,26.60
2018-06-29T16:16:29.031Z,26.10
2018-06-29T16:19:06.005Z,26.30
2018-06-29T16:21:43.014Z,26.20
2018-06-29T16:24:20.353Z,26.10
2018-06-29T16:26:58.289Z,26.40
2018-06-29T16:29:37.210Z,26.70
2018-06-29T16:32:16.052Z,26.90
2018-06-29T16:34:53.644Z,26.90
2018-06-29T16:37:29.606Z,26.40
2018-06-29T16:40:07.261Z,27.60
2018-06-29T16:42:44.968Z,27.50
2018-06-29T16:45:22.190Z,27.80
2018-06-29T16:48:00.257Z,28.00
2018-06-29T16:50:37.419Z,28.30
2018-06-29T16:53:14.863Z,28.40
2018-06-29T16:55:53.180Z,28.50
2018-06-29T16:58:29.266Z,28.40
2018-06-29T17:01:05.914Z,28.20
2018-06-29T17:03:42.670Z,29.10
2018-06-29T17:06:18.445Z,29.40
2018-06-29T17:08:55.441Z,30.00
2018-06-29T17:11:31.545Z,29.60
2018-06-29T17:14:08.136Z,30.10
2018-06-29T17:16:44.064Z,30.00
2018-06-29T17:19:22.275Z,30.70
2018-06-29T17:21:59.524Z,30.70
2018-06-29T17:24:35.858Z,31.00
2018-06-29T17:27:13.255Z,30.80
2018-06-29T17:29:49.421Z,31.70
2018-06-29T17:32:25.566Z,32.60
2018-06-29T17:35:01.953Z,32.40
2018-06-29T17:37:40.117Z,32.50
2018-06-29T17:40:17.628Z,32.80
2018-06-29T17:42:55.242Z,33.10
2018-06-29T17:45:32.825Z,33.60
2018-06-29T17:48:09.480Z,33.60
2018-06-29T17:50:45.188Z,34.20
2018-06-29T17:53:20.998Z,34.40
2018-06-29T17:55:58.650Z,34.60
2018-06-29T17:58:35.322Z,35.10
2018-06-29T18:01:12.355Z,35.10
2018-06-29T18:03:50.233Z,35.20
2018-06-29T18:06:27.598Z,35.50
2018-06-29T18:09:05.249Z,35.50
2018-06-29T18:11:42.281Z,35.60
2018-06-29T18:14:19.713Z,35.60
2018-06-29T18:16:56.450Z,35.60
2018-06-29T18:19:32.376Z,35.70
2018-06-29T18:22:09.012Z,36.10
2018-06-29T18:24:44.985Z,36.10
2018-06-29T18:27:21.941Z,36.40
2018-06-29T18:29:58.408Z,36.50
2018-06-29T18:32:37.772Z,36.60
2018-06-29T18:35:16.038Z,37.20
2018-06-29T18:37:53.343Z,37.10
2018-06-29T18:40:30.039Z,37.30
2018-06-29T18:43:08.250Z,38.10
2018-06-29T18:45:46.200Z,38.90
2018-06-29T18:48:24.185Z,38.10
2018-06-29T18:51:02.204Z,38.30
2018-06-29T18:53:38.606Z,39.00
2018-06-29T18:56:17.152Z,38.60
2018-06-29T18:58:54.520Z,39.20
2018-06-29T19:01:30.752Z,40.00
2018-06-29T19:04:09.923Z,41.00
2018-06-29T19:06:46.802Z,41.50
2018-06-29T19:09:24.215Z,42.00
2018-06-29T19:12:02.187Z,42.20
2018-06-29T19:14:39.553Z,43.40
2018-06-29T19:17:18.598Z,43.20
2018-06-29T19:19:56.529Z,44.20
2018-06-29T19:22:36.248Z,44.60
2018-06-29T19:25:13.535Z,44.80
2018-06-29T19:27:50.872Z,45.70
2018-06-29T19:30:28.267Z,44.50
2018-06-29T19:33:06.367Z,44.80
2018-06-29T19:35:43.704Z,45.10
2018-06-29T19:38:22.349Z,44.80
2018-06-29T19:40:58.635Z,44.30
2018-06-29T19:43:36.537Z,45.30
2018-06-29T19:46:14.482Z,46.70
2018-06-29T19:48:52.009Z,47.80
2018-06-29T19:51:30.070Z,48.50
2018-06-29T19:54:06.954Z,49.20
2018-06-29T19:56:44.649Z,50.50
2018-06-29T19:59:24.127Z,51.50
2018-06-29T20:02:01.663Z,52.50
2018-06-29T20:04:39.072Z,52.80
2018-06-29T20:07:16.846Z,53.40
2018-06-29T20:09:55.591Z,54.00
2018-06-29T20:12:32.571Z,54.20
2018-06-29T20:15:10.260Z,54.70
2018-06-29T20:17:47.882Z,55.10
2018-06-29T20:20:25.163Z,55.60
2018-06-29T20:23:02.904Z,56.00
2018-06-29T20:25:40.885Z,56.40
2018-06-29T20:28:17.653Z,56.80
2018-06-29T20:30:57.049Z,57.40
2018-06-29T20:33:34.150Z,57.70
2018-06-29T20:36:11.710Z,58.10
2018-06-29T20:38:47.552Z,58.20
2018-06-29T20:41:25.071Z,58.70
2018-06-29T20:44:01.380Z,59.10
2018-06-29T20:46:38.424Z,59.40
2018-06-29T20:49:16.770Z,59.60
2018-06-29T20:51:53.285Z,59.50
2018-06-29T20:54:29.301Z,59.60
2018-06-29T20:57:07.201Z,60.20
2018-06-29T20:59:43.500Z,60.60
2018-06-29T21:02:20.693Z,61.00
2018-06-29T21:04:58.258Z,61.00
2018-06-29T21:07:35.361Z,61.40
2018-06-29T21:10:13.383Z,61.70
2018-06-29T21:12:51.110Z,61.80
2018-06-29T21:15:27.538Z,62.20
2018-06-29T21:18:05.761Z,62.30
2018-06-29T21:20:42.267Z,62.30
2018-06-29T21:23:19.178Z,62.50
2018-06-29T21:25:55.389Z,62.70
2018-06-29T21:28:32.721Z,62.90
2018-06-29T21:31:08.911Z,62.80
2018-06-29T21:33:46.400Z,63.50
2018-06-29T21:36:23.816Z,63.70
2018-06-29T21:39:00.945Z,63.80
2018-06-29T21:41:37.690Z,64.50
2018-06-29T21:44:14.256Z,64.80
2018-06-29T21:46:52.143Z,65.40
2018-06-29T21:49:29.179Z,65.30
2018-06-29T21:52:07.156Z,65.50
2018-06-29T21:57:22.690Z,66.60
2018-06-29T21:59:59.836Z,67.00
2018-06-29T22:02:36.473Z,67.00
2018-06-29T22:05:12.468Z,66.70
2018-06-29T22:07:48.484Z,67.20
2018-06-29T22:10:25.526Z,67.50
2018-06-29T22:13:02.728Z,67.60
2018-06-29T22:15:40.029Z,67.70
2018-06-29T22:18:16.477Z,67.50
2018-06-29T22:20:53.677Z,67.70
2018-06-29T22:23:30.935Z,67.80
2018-06-29T22:26:08.598Z,67.90
2018-06-29T22:28:45.037Z,68.00
2018-06-29T22:31:22.100Z,68.20
2018-06-29T22:33:59.265Z,68.30
2018-06-29T22:36:36.611Z,68.40
2018-06-29T22:39:14.858Z,68.80
2018-06-29T22:41:51.923Z,69.10
2018-06-29T22:44:30.114Z,69.40
2018-06-29T22:47:07.318Z,69.60
2018-06-29T22:49:43.291Z,69.90
2018-06-29T22:52:21.621Z,70.40
2018-06-29T22:54:58.519Z,71.00
2018-06-29T22:57:35.281Z,71.20
2018-06-29T23:00:12.979Z,71.40
2018-06-29T23:02:51.313Z,71.60
2018-06-29T23:05:29.707Z,72.10
2018-06-29T23:08:08.605Z,72.10
2018-06-29T23:13:23.365Z,71.50
2018-06-29T23:16:01.228Z,71.50
2018-06-29T23:18:38.230Z,71.50
2018-06-29T23:21:14.654Z,71.30
2018-06-29T23:23:50.862Z,71.20
2018-06-29T23:26:27.482Z,71.70
2018-06-29T23:29:03.236Z,71.70
2018-06-29T23:31:39.872Z,71.90
2018-06-29T23:34:16.521Z,72.20
2018-06-29T23:36:54.707Z,72.20
2018-06-29T23:39:31.171Z,72.40
2018-06-29T23:42:07.235Z,72.50
2018-06-29T23:44:43.964Z,72.60
2018-06-29T23:47:20.969Z,72.50
2018-06-29T23:49:58.321Z,72.30
2018-06-29T23:52:34.803Z,72.20
2018-06-29T23:55:11.545Z,71.90
2018-06-29T23:57:48.279Z,72.20
